Time;durP1;ratioP1;P1;durP2;ratioP2;P2;SDS_P1;SDS_P2;PMS_P1;PMS_P2;Temp;Humidity;BMP_temperature;BMP_pressure;BME280_temperature;BME280_humidity;BME280_pressure;Samples;Min_cycle;Max_cycle;Signal;HPM_P1;HPM_P2
2022/05/21 00:01:31;;;;;;;4.07;2.70;;;;;;;16.64;78.88;99230.63;4972160;28;20221;-50
2022/05/21 00:03:58;;;;;;;3.87;2.93;;;;;;;16.61;76.99;99235.41;4973104;28;20653;-51
2022/05/21 00:06:26;;;;;;;3.43;3.10;;;;;;;16.50;77.66;99232.19;4976081;28;20344;-51
2022/05/21 00:08:53;;;;;;;4.63;2.77;;;;;;;16.43;79.19;99230.44;4976077;28;20197;-52
2022/05/21 00:11:21;;;;;;;5.67;3.17;;;;;;;16.33;79.20;99233.31;4975701;28;20242;-51
2022/05/21 00:13:48;;;;;;;4.87;3.17;;;;;;;16.25;79.54;99242.06;4975818;28;20549;-53
2022/05/21 00:16:15;;;;;;;5.20;3.47;;;;;;;16.30;78.98;99249.47;4975992;28;20181;-51
2022/05/21 00:18:42;;;;;;;10.37;3.43;;;;;;;16.20;78.82;99249.66;4974364;28;20193;-53
2022/05/21 00:21:11;;;;;;;4.93;3.57;;;;;;;16.11;79.33;99254.16;4974238;28;20283;-53
2022/05/21 00:23:38;;;;;;;6.00;3.70;;;;;;;16.08;80.31;99259.75;4974574;28;20302;-51
2022/05/21 00:26:08;;;;;;;5.83;4.40;;;;;;;16.03;82.16;99267.34;4975493;28;20210;-52
2022/05/21 00:28:38;;;;;;;4.50;3.60;;;;;;;15.96;82.11;99275.09;4975805;28;20188;-51
2022/05/21 00:31:07;;;;;;;6.83;3.53;;;;;;;15.91;83.26;99269.50;4975451;28;20196;-51
2022/05/21 00:33:53;;;;;;;6.87;4.50;;;;;;;15.78;82.17;99281.38;4972869;28;20386;-52
2022/05/21 00:36:20;;;;;;;6.63;4.23;;;;;;;15.71;82.80;99285.69;4971583;28;20189;-53
2022/05/21 00:38:47;;;;;;;6.87;4.70;;;;;;;15.75;83.36;99287.00;4969021;28;20663;-52
2022/05/21 00:41:18;;;;;;;6.60;4.97;;;;;;;15.60;83.17;99286.03;4967074;28;20715;-50
2022/05/21 00:43:49;;;;;;;6.07;4.20;;;;;;;15.58;83.91;99295.91;4968759;28;20435;-50
2022/05/21 00:46:19;;;;;;;11.23;4.47;;;;;;;15.51;85.69;99295.72;4968908;28;20224;-50
2022/05/21 00:48:54;;;;;;;7.47;5.30;;;;;;;15.50;84.93;99294.91;4971371;28;20653;-51
2022/05/21 00:51:25;;;;;;;11.43;4.80;;;;;;;15.45;86.12;99302.50;4969666;28;20188;-52
2022/05/21 00:53:56;;;;;;;6.80;4.83;;;;;;;15.43;86.89;99293.94;4968703;28;20205;-52
2022/05/21 00:56:25;;;;;;;7.70;5.47;;;;;;;15.38;86.27;99298.03;4967871;28;20208;-50
2022/05/21 01:01:44;;;;;;;7.40;5.47;;;;;;;15.16;87.21;99298.53;4967120;28;20211;-51
2022/05/21 01:04:12;;;;;;;11.13;5.87;;;;;;;15.04;86.98;99302.47;4973095;28;20253;-51
2022/05/21 01:06:40;;;;;;;9.43;7.07;;;;;;;14.99;87.15;99296.88;4970624;28;20223;-52
2022/05/21 01:09:08;;;;;;;6.77;5.50;;;;;;;14.87;86.86;99297.19;4969059;28;20193;-51
2022/05/21 01:11:37;;;;;;;9.80;5.90;;;;;;;14.78;87.09;99287.69;4971053;28;20216;-51
2022/05/21 01:14:10;;;;;;;8.47;5.90;;;;;;;14.68;88.55;99282.53;4970384;28;20236;-51
2022/05/21 01:16:38;;;;;;;8.97;5.43;;;;;;;14.65;88.72;99287.28;4967508;28;20225;-52
2022/05/21 01:19:07;;;;;;;6.33;5.43;;;;;;;14.58;89.08;99293.19;4967917;28;20589;-52
2022/05/21 01:21:35;;;;;;;8.63;5.97;;;;;;;14.49;89.86;99296.78;4966677;28;20214;-50
2022/05/21 01:24:06;;;;;;;11.83;6.70;;;;;;;14.47;90.27;99304.00;4962917;28;20427;-50
2022/05/21 01:26:35;;;;;;;10.47;6.40;;;;;;;14.50;89.12;99294.97;4975785;28;20474;-52
2022/05/21 01:29:05;;;;;;;8.33;6.00;;;;;;;14.43;89.33;99303.47;4967332;28;20289;-51
2022/05/21 01:31:32;;;;;;;7.23;6.10;;;;;;;14.37;89.68;99305.91;4968245;28;20214;-50
2022/05/21 01:34:00;;;;;;;7.53;5.73;;;;;;;14.24;90.30;99303.75;4968404;28;20202;-50
2022/05/21 01:36:27;;;;;;;6.27;5.17;;;;;;;14.14;90.86;99309.09;4965729;28;20238;-50
2022/05/21 01:38:56;;;;;;;8.67;5.70;;;;;;;14.09;91.52;99306.13;4968297;28;20246;-51
2022/05/21 01:41:24;;;;;;;9.00;6.03;;;;;;;13.93;91.94;99301.63;4965519;28;20228;-50
2022/05/21 01:46:36;;;;;;;9.33;6.20;;;;;;;13.79;92.50;99311.72;4966700;28;20219;-50
2022/05/21 01:49:03;;;;;;;12.13;6.43;;;;;;;13.79;92.77;99309.09;4966236;28;20197;-50
2022/05/21 01:51:30;;;;;;;8.07;6.80;;;;;;;13.78;92.57;99314.50;4965233;28;20583;-50
2022/05/21 01:53:57;;;;;;;11.63;6.53;;;;;;;13.75;92.22;99307.75;4971509;28;20559;-51
2022/05/21 01:56:26;;;;;;;7.40;5.57;;;;;;;13.78;91.81;99317.13;4973752;28;20585;-51
2022/05/21 01:58:53;;;;;;;7.27;6.13;;;;;;;13.82;89.12;99315.81;4972116;28;20226;-50
2022/05/21 02:01:20;;;;;;;7.33;5.37;;;;;;;13.78;88.88;99315.31;4971837;28;20190;-50
2022/05/21 02:03:48;;;;;;;7.97;5.90;;;;;;;13.76;89.22;99316.47;4972127;28;20206;-51
2022/05/21 02:06:15;;;;;;;8.17;5.30;;;;;;;13.71;88.12;99322.16;4965620;28;20598;-50
2022/05/21 02:08:42;;;;;;;7.27;5.10;;;;;;;13.61;89.12;99322.28;4973358;28;20595;-51
2022/05/21 02:11:10;;;;;;;7.10;5.50;;;;;;;13.65;88.04;99325.41;4973029;28;20203;-50
2022/05/21 02:13:38;;;;;;;7.73;5.70;;;;;;;13.70;87.38;99337.09;4972013;28;20205;-49
2022/05/21 02:16:06;;;;;;;6.70;5.00;;;;;;;13.63;87.01;99337.84;4971935;28;20253;-50
2022/05/21 02:18:33;;;;;;;9.03;5.43;;;;;;;13.56;87.65;99335.81;4973151;28;20284;-53
2022/05/21 02:21:01;;;;;;;7.77;5.33;;;;;;;13.56;87.82;99342.88;4969725;28;20214;-50
2022/05/21 02:23:28;;;;;;;8.70;5.57;;;;;;;13.58;85.79;99339.13;4973034;28;20283;-50
2022/05/21 02:25:59;;;;;;;7.57;5.77;;;;;;;13.58;85.76;99346.19;4972892;28;20206;-51
2022/05/21 02:28:27;;;;;;;10.00;5.43;;;;;;;13.58;86.38;99351.44;4972333;28;20209;-50
2022/05/21 02:30:56;;;;;;;8.00;6.10;;;;;;;13.56;84.36;99348.94;4972966;28;20661;-50
2022/05/21 02:33:23;;;;;;;5.83;4.97;;;;;;;13.50;84.98;99340.88;4972595;28;20242;-50
2022/05/21 02:35:51;;;;;;;7.07;5.10;;;;;;;13.48;84.81;99340.19;4972918;28;20197;-50
2022/05/21 02:41:10;;;;;;;7.67;5.50;;;;;;;13.48;83.21;99334.94;4915065;28;20212;-50
2022/05/21 02:43:38;;;;;;;10.13;5.53;;;;;;;13.35;84.28;99336.13;4960146;28;20282;-50
2022/05/21 02:46:07;;;;;;;10.93;5.60;;;;;;;13.29;84.71;99341.97;4971585;28;20639;-50
2022/05/21 02:48:34;;;;;;;10.00;5.53;;;;;;;13.27;84.66;99343.94;4971608;28;20213;-51
2022/05/21 02:51:02;;;;;;;9.53;5.70;;;;;;;13.25;84.63;99344.06;4973046;28;20185;-50
2022/05/21 02:53:29;;;;;;;6.73;5.03;;;;;;;13.34;85.36;99352.00;4972557;28;20194;-50
2022/05/21 02:55:57;;;;;;;11.33;5.33;;;;;;;13.32;84.94;99351.31;4972811;28;20648;-50
2022/05/21 02:58:25;;;;;;;7.47;6.13;;;;;;;13.32;85.70;99348.69;4972743;28;20189;-50
2022/05/21 03:00:53;;;;;;;12.13;6.27;;;;;;;13.28;85.94;99353.44;4971571;28;20198;-51
2022/05/21 03:03:21;;;;;;;7.87;5.27;;;;;;;13.39;86.86;99365.47;4971091;28;20218;-51
2022/05/21 03:05:49;;;;;;;12.00;6.20;;;;;;;13.41;87.16;99360.91;4972650;28;20685;-50
2022/05/21 03:11:01;;;;;;;10.23;5.93;;;;;;;13.53;86.92;99364.16;4970837;28;20200;-50
2022/05/21 03:13:29;;;;;;;8.67;5.53;;;;;;;13.55;86.61;99368.28;4972337;28;20303;-50
2022/05/21 03:15:57;;;;;;;8.10;5.63;;;;;;;13.55;86.07;99368.28;4966862;28;20237;-50
2022/05/21 03:18:26;;;;;;;13.13;5.20;;;;;;;13.50;86.67;99356.59;4966949;28;20703;-50
2022/05/21 03:20:53;;;;;;;6.73;5.50;;;;;;;13.42;87.12;99359.97;4972372;28;20194;-50
2022/05/21 03:23:20;;;;;;;7.70;4.87;;;;;;;13.26;87.38;99352.75;4972000;28;20252;-50
2022/05/21 03:25:48;;;;;;;7.87;5.73;;;;;;;13.10;87.98;99356.88;4972286;28;20209;-50
2022/05/21 03:28:16;;;;;;;11.27;5.60;;;;;;;12.97;88.54;99365.13;4964596;28;20194;-50
2022/05/21 03:30:44;;;;;;;9.83;6.00;;;;;;;12.83;89.73;99366.44;4972422;28;20212;-50
2022/05/21 03:33:11;;;;;;;8.50;6.10;;;;;;;12.79;90.75;99369.50;4972065;28;20210;-50
2022/05/21 03:35:41;;;;;;;9.57;6.23;;;;;;;12.74;90.35;99374.34;4972280;28;20241;-50
2022/05/21 03:38:09;;;;;;;8.37;6.77;;;;;;;12.69;91.17;99373.00;4972268;28;20676;-50
2022/05/21 03:40:36;;;;;;;9.03;5.97;;;;;;;12.68;91.71;99381.81;4974283;28;20706;-50
2022/05/21 03:43:04;;;;;;;8.20;5.80;;;;;;;12.72;92.01;99379.72;4975748;28;20278;-50
2022/05/21 03:45:32;;;;;;;11.00;5.70;;;;;;;12.76;91.66;99388.13;4976182;28;20208;-52
2022/05/21 03:47:59;;;;;;;8.77;5.40;;;;;;;12.73;92.03;99381.38;4975929;28;20249;-50
2022/05/21 03:50:28;;;;;;;7.67;5.83;;;;;;;12.74;91.85;99383.03;4975979;28;20202;-50
2022/05/21 03:52:56;;;;;;;9.57;5.77;;;;;;;12.76;92.04;99375.84;4975545;28;20240;-50
2022/05/21 03:55:23;;;;;;;9.43;6.00;;;;;;;12.77;91.52;99372.25;4975957;28;20665;-50
2022/05/21 03:58:09;;;;;;;10.03;5.50;;;;;;;12.82;91.05;99369.22;4977689;28;20696;-50
2022/05/21 04:00:39;;;;;;;8.37;4.70;;;;;;;12.84;92.27;99368.06;4975839;28;20615;-50
2022/05/21 04:03:06;;;;;;;5.77;4.80;;;;;;;12.80;92.27;99371.97;4975366;28;20221;-50
2022/05/21 04:05:34;;;;;;;5.87;5.07;;;;;;;12.81;92.86;99378.03;4975777;28;20205;-50
2022/05/21 04:08:03;;;;;;;8.43;5.13;;;;;;;12.81;91.87;99378.03;4967774;28;20261;-50
2022/05/21 04:10:30;;;;;;;9.57;5.03;;;;;;;12.81;91.02;99378.84;4975951;28;20200;-50
2022/05/21 04:12:57;;;;;;;9.67;5.70;;;;;;;12.83;91.96;99383.97;4966431;28;20300;-49
2022/05/21 04:15:25;;;;;;;8.10;5.30;;;;;;;12.84;90.58;99381.19;4957046;28;20670;-50
2022/05/21 04:17:53;;;;;;;9.30;5.00;;;;;;;12.83;90.52;99390.00;4957013;29;20189;-50
2022/05/21 04:20:23;;;;;;;9.10;5.27;;;;;;;12.84;90.52;99386.41;4957262;29;20549;-49
2022/05/21 04:22:51;;;;;;;8.57;5.67;;;;;;;12.89;90.08;99398.25;4956352;29;20207;-49
2022/05/21 04:25:20;;;;;;;6.53;4.60;;;;;;;12.89;90.15;99393.84;4956748;29;20190;-50
2022/05/21 04:27:47;;;;;;;11.30;6.10;;;;;;;12.89;89.35;99395.63;4956623;29;20224;-50
2022/05/21 04:30:20;;;;;;;7.23;5.20;;;;;;;12.93;89.91;99399.59;4956775;29;20255;-50
2022/05/21 04:32:48;;;;;;;11.10;5.40;;;;;;;12.98;88.63;99394.75;4956239;29;20237;-50
2022/05/21 04:35:16;;;;;;;7.23;4.97;;;;;;;13.02;89.11;99403.16;4956886;28;20204;-49
2022/05/21 04:37:47;;;;;;;10.90;5.13;;;;;;;13.08;88.44;99402.56;4956682;28;20185;-52
2022/05/21 04:40:17;;;;;;;10.87;4.87;;;;;;;13.18;87.79;99405.13;4956154;29;20205;-50
2022/05/21 04:42:46;;;;;;;6.50;4.67;;;;;;;13.33;85.82;99402.78;4955676;29;20219;-51
2022/05/21 04:45:15;;;;;;;7.83;4.70;;;;;;;13.28;84.39;99406.69;4956428;29;20246;-49
2022/05/21 04:47:42;;;;;;;7.63;4.57;;;;;;;13.37;84.18;99418.09;4954951;29;20221;-51
2022/05/21 04:50:27;;;;;;;5.50;4.37;;;;;;;13.47;84.06;99414.59;4955793;28;20220;-50
2022/05/21 04:52:55;;;;;;;5.90;4.63;;;;;;;13.57;83.88;99418.78;4955798;29;20556;-49
2022/05/21 04:55:22;;;;;;;5.43;4.00;;;;;;;13.69;83.22;99418.56;4956007;29;20191;-50
2022/05/21 04:57:50;;;;;;;11.17;4.10;;;;;;;13.77;82.43;99420.44;4955760;29;20198;-50
2022/05/21 05:00:21;;;;;;;9.33;4.23;;;;;;;13.90;81.84;99418.22;4956211;28;20189;-50
2022/05/21 05:02:50;;;;;;;8.73;4.27;;;;;;;13.98;81.04;99420.91;4955886;28;20533;-50
2022/05/21 05:05:17;;;;;;;10.70;4.33;;;;;;;14.14;78.61;99414.13;4956123;29;20279;-50
2022/05/21 05:07:45;;;;;;;4.87;3.67;;;;;;;14.15;77.87;99421.03;4963576;28;20276;-50
2022/05/21 05:10:12;;;;;;;7.10;4.07;;;;;;;14.05;78.64;99415.88;4968029;28;20198;-51
2022/05/21 05:12:39;;;;;;;8.50;3.97;;;;;;;14.08;77.93;99409.47;4969532;28;20223;-50
2022/05/21 05:15:09;;;;;;;7.87;3.40;;;;;;;14.12;78.30;99416.06;4973505;28;20259;-52
2022/05/21 05:17:37;;;;;;;6.60;4.03;;;;;;;14.01;77.93;99428.47;4960562;28;20185;-50
2022/05/21 05:20:06;;;;;;;8.37;3.47;;;;;;;14.10;77.97;99431.16;4973983;28;20273;-52
2022/05/21 05:22:33;;;;;;;6.27;3.37;;;;;;;14.15;77.50;99427.09;4974723;28;20237;-49
2022/05/21 05:25:02;;;;;;;6.90;3.80;;;;;;;14.13;77.38;99425.59;4974939;28;20641;-50
2022/05/21 05:27:29;;;;;;;5.07;3.63;;;;;;;14.15;77.35;99434.16;4974809;28;20222;-52
2022/05/21 05:29:57;;;;;;;9.37;3.43;;;;;;;14.21;77.32;99428.28;4974630;28;20252;-51
2022/05/21 05:32:25;;;;;;;6.60;3.30;;;;;;;14.35;75.58;99426.06;4974291;28;20219;-51
2022/05/21 05:34:52;;;;;;;5.90;3.53;;;;;;;14.19;75.44;99424.97;4974748;28;20189;-50
2022/05/21 05:37:19;;;;;;;4.53;3.50;;;;;;;14.32;76.53;99429.81;4974841;28;20184;-51
2022/05/21 05:39:47;;;;;;;8.57;3.43;;;;;;;14.43;76.32;99419.03;4974752;28;20285;-51
2022/05/21 05:42:14;;;;;;;5.77;2.93;;;;;;;14.59;76.49;99425.34;4974307;28;20847;-50
2022/05/21 05:44:41;;;;;;;6.93;2.90;;;;;;;14.66;75.22;99433.44;4974742;28;20190;-49
2022/05/21 05:47:09;;;;;;;4.47;3.00;;;;;;;14.59;73.08;99423.56;4974549;28;20238;-51
2022/05/21 05:49:37;;;;;;;6.57;3.00;;;;;;;14.82;72.99;99422.22;4972710;28;20305;-50
2022/05/21 05:52:06;;;;;;;4.60;3.23;;;;;;;14.81;73.27;99417.94;4972120;28;20233;-51
2022/05/21 05:54:34;;;;;;;5.63;2.93;;;;;;;14.76;74.20;99416.59;4973952;28;20191;-52
2022/05/21 05:57:01;;;;;;;4.80;2.90;;;;;;;14.73;73.34;99418.75;4973823;28;20194;-52
2022/05/21 06:05:00;;;;;;;6.27;2.97;;;;;;;15.03;72.96;99421.78;4973933;28;20185;-49
2022/05/21 06:07:27;;;;;;;7.00;3.13;;;;;;;15.12;72.57;99427.91;4974044;28;20210;-49
2022/05/21 06:10:01;;;;;;;5.63;2.93;;;;;;;15.31;70.27;99427.59;4972621;28;20241;-48
2022/05/21 06:12:29;;;;;;;6.70;2.43;;;;;;;15.51;69.84;99424.66;4973588;28;20215;-49
2022/05/21 06:14:56;;;;;;;3.63;2.20;;;;;;;15.84;68.67;99429.94;4973969;28;20196;-48
2022/05/21 06:17:24;;;;;;;4.10;2.67;;;;;;;15.86;66.51;99429.78;4974327;28;20240;-49
2022/05/21 06:19:51;;;;;;;5.47;2.70;;;;;;;16.04;67.11;99443.59;4973986;28;20233;-49
2022/05/21 06:22:20;;;;;;;6.87;2.03;;;;;;;15.96;66.69;99442.78;4973523;28;20232;-49
2022/05/21 06:24:47;;;;;;;4.53;2.37;;;;;;;15.98;65.68;99444.25;4973637;28;20277;-49
2022/05/21 06:27:14;;;;;;;3.00;2.00;;;;;;;16.02;65.88;99450.03;4973778;28;20215;-51
2022/05/21 06:29:41;;;;;;;4.00;2.47;;;;;;;15.96;66.84;99454.13;4973756;28;20536;-51
2022/05/21 06:32:11;;;;;;;4.33;2.50;;;;;;;16.01;67.42;99441.28;4972118;28;20779;-51
2022/05/21 06:34:39;;;;;;;4.13;2.60;;;;;;;15.96;67.36;99440.97;4973600;28;20186;-53
2022/05/21 06:37:08;;;;;;;8.80;2.93;;;;;;;15.90;66.80;99444.28;4973736;28;20191;-51
2022/05/21 06:39:39;;;;;;;3.77;2.50;;;;;;;15.64;68.32;99437.34;4973742;28;20260;-51
2022/05/21 06:42:08;;;;;;;5.83;2.63;;;;;;;15.55;67.93;99433.88;4973381;28;20234;-50
2022/05/21 06:44:36;;;;;;;4.23;2.23;;;;;;;15.65;67.87;99437.16;4973717;28;20193;-51
2022/05/21 06:47:04;;;;;;;4.13;2.30;;;;;;;15.81;64.38;99438.16;4973605;28;20205;-51
2022/05/21 06:49:32;;;;;;;3.20;2.17;;;;;;;15.73;65.01;99440.78;4973218;28;20198;-50
2022/05/21 06:51:59;;;;;;;4.27;1.57;;;;;;;15.77;65.84;99427.16;4972496;28;20246;-51
2022/05/21 06:54:28;;;;;;;3.83;1.80;;;;;;;15.86;63.47;99441.13;4973110;28;20214;-50
2022/05/21 06:56:56;;;;;;;2.30;1.60;;;;;;;15.81;61.92;99430.25;4972861;28;20233;-50
2022/05/21 06:59:26;;;;;;;4.53;1.70;;;;;;;15.51;63.32;99432.53;4973059;28;20592;-50
2022/05/21 07:01:53;;;;;;;7.87;1.63;;;;;;;15.73;63.35;99420.56;4973014;28;20208;-52
2022/05/21 07:07:32;;;;;;;3.27;1.40;;;;;;;15.92;63.10;99426.50;4972102;28;20594;-54
2022/05/21 07:09:57;;;;;;;4.27;1.70;;;;;;;15.92;61.83;99416.78;4970212;28;20244;-52
2022/05/21 07:12:28;;;;;;;3.07;1.30;;;;;;;15.93;61.43;99425.50;4964667;28;20213;-52
2022/05/21 07:14:55;;;;;;;3.27;1.07;;;;;;;15.87;63.55;99423.56;4972110;28;20260;-51
2022/05/21 07:17:23;;;;;;;5.10;1.23;;;;;;;16.05;60.35;99423.38;4972871;28;20193;-52
2022/05/21 07:19:50;;;;;;;2.80;1.13;;;;;;;15.92;60.02;99423.84;4972814;28;20563;-51
2022/05/21 07:22:18;;;;;;;1.90;1.20;;;;;;;16.02;61.55;99429.78;4972923;28;20230;-51
2022/05/21 07:24:47;;;;;;;4.40;1.00;;;;;;;16.29;61.02;99430.38;4973043;28;20289;-51
2022/05/21 07:27:16;;;;;;;3.63;1.17;;;;;;;16.38;60.46;99433.84;4973411;28;20246;-51
2022/05/21 07:29:45;;;;;;;3.57;1.43;;;;;;;16.49;59.47;99425.56;4971997;28;20300;-51
2022/05/21 07:32:17;;;;;;;2.43;1.40;;;;;;;16.57;59.10;99430.00;4972928;28;20213;-51
2022/05/21 07:34:45;;;;;;;3.90;1.10;;;;;;;16.58;59.32;99428.16;4973131;28;20224;-50
2022/05/21 07:37:12;;;;;;;5.93;1.30;;;;;;;16.63;57.77;99429.31;4973182;28;20179;-51
2022/05/21 07:39:41;;;;;;;4.00;1.40;;;;;;;16.47;58.80;99434.63;4973163;28;20183;-51
2022/05/21 07:42:10;;;;;;;3.57;1.43;;;;;;;16.48;60.21;99428.38;4972916;28;20202;-51
2022/05/21 07:44:37;;;;;;;5.13;1.27;;;;;;;16.67;58.33;99435.88;4973309;28;20201;-53
2022/05/21 07:47:06;;;;;;;3.63;1.20;;;;;;;16.54;59.35;99427.69;4973251;28;20210;-51
2022/05/21 07:49:32;;;;;;;3.40;1.33;;;;;;;16.51;58.07;99423.56;4972975;28;20182;-50
2022/05/21 07:52:00;;;;;;;2.90;1.27;;;;;;;16.50;59.29;99421.94;4972456;28;20622;-51
2022/05/21 07:54:27;;;;;;;5.97;1.60;;;;;;;16.53;59.32;99423.41;4972908;28;20647;-51
2022/05/21 07:56:55;;;;;;;4.60;1.43;;;;;;;16.53;59.80;99429.50;4973092;28;20667;-51
2022/05/21 07:59:23;;;;;;;3.47;1.47;;;;;;;16.70;59.68;99426.00;4973224;28;20734;-52
2022/05/21 08:01:50;;;;;;;2.23;1.33;;;;;;;16.86;61.55;99422.47;4972333;28;20219;-52
2022/05/21 08:04:18;;;;;;;3.27;1.40;;;;;;;17.03;59.49;99420.56;4972479;28;20191;-53
2022/05/21 08:07:04;;;;;;;5.80;1.90;;;;;;;16.94;57.64;99419.78;4972910;28;20222;-53
2022/05/21 08:09:31;;;;;;;4.17;1.93;;;;;;;17.02;58.96;99417.13;4972691;28;20194;-52
2022/05/21 08:11:59;;;;;;;5.00;1.80;;;;;;;17.12;59.04;99419.53;4972022;28;20265;-51
2022/05/21 08:14:27;;;;;;;2.67;1.53;;;;;;;17.15;58.41;99421.81;4972868;28;20718;-52
2022/05/21 08:16:54;;;;;;;3.30;1.77;;;;;;;17.31;58.51;99420.09;4972479;28;20191;-51
2022/05/21 08:19:22;;;;;;;3.50;1.37;;;;;;;17.43;59.49;99423.16;4966122;28;20196;-51
2022/05/21 08:21:50;;;;;;;4.27;1.40;;;;;;;17.51;58.49;99418.63;4962222;28;20599;-53
2022/05/21 08:27:02;;;;;;;3.73;1.60;;;;;;;17.37;56.28;99416.75;4965536;28;20196;-51
2022/05/21 08:29:33;;;;;;;4.67;1.47;;;;;;;17.24;56.16;99406.78;4965306;28;20795;-53
2022/05/21 08:32:00;;;;;;;3.43;1.30;;;;;;;17.36;57.27;99402.75;4964218;28;20230;-51
2022/05/21 08:34:29;;;;;;;2.40;1.40;;;;;;;17.43;55.56;99410.78;4967049;28;20600;-51
2022/05/21 08:36:56;;;;;;;1.83;1.00;;;;;;;17.39;54.38;99406.84;4967645;28;20589;-52
2022/05/21 08:39:23;;;;;;;4.10;1.13;;;;;;;17.37;53.07;99406.19;4976269;28;20196;-51
2022/05/21 08:41:54;;;;;;;6.43;1.23;;;;;;;17.36;52.37;99420.38;4975870;28;20233;-52
2022/05/21 08:44:34;;;;;;;3.87;1.00;;;;;;;17.29;53.62;99414.16;4976523;28;20197;-54
2022/05/21 08:47:19;;;;;;;5.07;1.00;;;;;;;17.19;54.44;99411.75;4976166;28;20274;-53
2022/05/21 08:49:55;;;;;;;5.10;1.00;;;;;;;17.36;55.60;99415.09;4976195;28;20218;-53
2022/05/21 08:52:29;;;;;;;3.53;1.57;;;;;;;17.38;56.08;99402.56;4972958;28;20262;-51
2022/05/21 08:54:59;;;;;;;4.43;1.17;;;;;;;17.53;55.14;99416.63;4965860;28;20215;-53
2022/05/21 08:57:29;;;;;;;3.77;1.10;;;;;;;17.33;54.16;99397.81;4968167;28;20237;-50
2022/05/21 09:00:03;;;;;;;3.80;1.23;;;;;;;17.49;55.27;99406.63;4968702;28;20290;-51
2022/05/21 09:02:33;;;;;;;2.00;1.23;;;;;;;17.50;54.61;99392.41;4968207;28;20222;-50
2022/05/21 09:05:06;;;;;;;2.60;1.20;;;;;;;17.38;54.53;99395.47;4972203;28;20549;-50
2022/05/21 09:07:45;;;;;;;3.03;1.23;;;;;;;17.59;55.41;99398.44;4969610;28;20335;-50
2022/05/21 09:10:28;;;;;;;2.00;1.30;;;;;;;17.77;54.72;99393.69;4973766;28;20200;-51
2022/05/21 09:12:59;;;;;;;2.57;1.00;;;;;;;17.93;54.29;99383.97;4975221;28;20215;-51
2022/05/21 09:18:14;;;;;;;3.10;0.97;;;;;;;17.96;52.18;99383.59;4975290;28;20195;-51
2022/05/21 09:20:49;;;;;;;3.93;1.17;;;;;;;18.15;53.42;99385.72;4975285;28;20284;-50
2022/05/21 09:23:15;;;;;;;3.73;1.07;;;;;;;18.25;51.67;99395.22;4975076;28;20223;-49
2022/05/21 09:25:44;;;;;;;5.47;1.00;;;;;;;18.32;49.92;99388.19;4975036;28;20243;-53
2022/05/21 09:28:12;;;;;;;4.03;1.03;;;;;;;18.12;50.96;99380.81;4975105;28;20217;-50
2022/05/21 09:30:41;;;;;;;3.13;1.30;;;;;;;18.19;52.36;99380.06;4975159;28;20196;-51
2022/05/21 09:33:26;;;;;;;6.17;1.10;;;;;;;18.36;50.74;99376.25;4974579;28;20218;-51
2022/05/21 09:35:56;;;;;;;2.10;0.80;;;;;;;18.33;52.39;99389.03;4974877;28;20196;-51
2022/05/21 09:38:26;;;;;;;1.97;0.80;;;;;;;18.42;50.44;99380.00;4968587;28;20206;-50
2022/05/21 09:41:11;;;;;;;4.43;1.53;;;;;;;18.57;50.89;99385.25;4963593;28;20651;-51
2022/05/21 09:46:26;;;;;;;3.60;0.90;;;;;;;18.71;47.97;99375.66;4968165;28;20224;-50
2022/05/21 09:48:55;;;;;;;1.37;0.73;;;;;;;18.67;48.06;99369.94;4974568;28;20550;-52
2022/05/21 09:51:26;;;;;;;2.87;0.90;;;;;;;18.83;49.75;99365.44;4974236;28;20186;-51
2022/05/21 09:53:54;;;;;;;3.10;1.00;;;;;;;18.87;47.41;99362.22;4958856;28;20190;-52
2022/05/21 09:56:22;;;;;;;2.80;0.80;;;;;;;18.98;48.76;99362.75;4962680;28;20198;-51
2022/05/21 09:58:51;;;;;;;2.57;0.73;;;;;;;19.04;47.64;99367.31;4968913;28;20206;-54
2022/05/21 10:01:36;;;;;;;3.23;0.70;;;;;;;19.26;47.90;99362.03;4966116;28;20294;-51
2022/05/21 10:04:13;;;;;;;2.83;0.50;;;;;;;19.21;47.79;99361.78;4964220;28;20200;-52
2022/05/21 10:06:46;;;;;;;2.97;1.00;;;;;;;19.39;48.45;99363.97;4967925;28;20189;-50
2022/05/21 10:12:08;;;;;;;2.30;0.80;;;;;;;19.53;46.62;99352.47;4964736;28;20586;-51
2022/05/21 10:14:40;;;;;;;3.90;0.70;;;;;;;19.58;47.44;99355.38;4974175;28;20195;-50
2022/05/21 10:17:12;;;;;;;1.80;0.60;;;;;;;19.42;46.93;99345.06;4972830;28;20204;-50
2022/05/21 10:19:45;;;;;;;3.87;0.80;;;;;;;19.58;47.19;99344.78;4974118;28;20263;-50
2022/05/21 10:22:27;;;;;;;2.97;0.90;;;;;;;19.91;46.83;99356.66;4972372;28;20228;-50
2022/05/21 10:25:02;;;;;;;4.00;0.90;;;;;;;19.92;45.68;99352.97;4973341;28;20425;-51
2022/05/21 10:27:46;;;;;;;2.57;0.90;;;;;;;19.96;45.55;99356.88;4973756;28;20195;-52
2022/05/21 10:30:18;;;;;;;3.07;1.40;;;;;;;20.21;44.96;99354.56;4973805;28;20192;-53
2022/05/21 10:33:02;;;;;;;3.90;1.60;;;;;;;19.83;44.83;99348.81;4972157;28;20709;-51
2022/05/21 10:35:41;;;;;;;2.20;0.80;;;;;;;19.65;46.62;99355.41;4973667;28;20213;-53
2022/05/21 10:38:16;;;;;;;2.20;1.00;;;;;;;19.75;45.74;99345.31;4973894;28;20193;-50
2022/05/21 10:40:48;;;;;;;2.90;1.30;;;;;;;19.74;44.77;99346.31;4973730;28;20220;-51
2022/05/21 10:43:31;;;;;;;2.57;0.83;;;;;;;19.66;46.69;99335.06;4973340;28;20226;-51
2022/05/21 10:46:08;;;;;;;3.27;1.20;;;;;;;19.79;46.67;99331.66;4965810;28;20198;-51
2022/05/21 10:48:49;;;;;;;2.27;0.73;;;;;;;20.03;46.42;99339.19;4967801;28;20208;-51
2022/05/21 10:51:20;;;;;;;5.17;1.13;;;;;;;20.27;44.26;99330.94;4961990;28;20183;-51
2022/05/21 10:54:17;;;;;;;3.17;1.37;;;;;;;20.09;44.36;99329.66;4968719;28;20203;-51
2022/05/21 10:56:58;;;;;;;2.83;1.47;;;;;;;20.16;43.94;99330.50;4973625;28;20562;-51
2022/05/21 10:59:56;;;;;;;3.17;1.17;;;;;;;20.16;46.08;99327.84;4973611;28;20187;-51
2022/05/21 11:03:02;;;;;;;5.43;1.70;;;;;;;20.34;46.66;99332.63;4954514;28;20587;-51
2022/05/21 11:05:47;;;;;;;3.33;1.20;;;;;;;20.49;44.62;99327.16;4967588;28;20670;-51
2022/05/21 11:08:23;;;;;;;7.93;0.90;;;;;;;20.70;44.87;99329.88;4965921;28;20692;-50
2022/05/21 11:11:00;;;;;;;8.57;1.40;;;;;;;20.59;44.74;99318.03;4957522;28;20201;-51
2022/05/21 11:13:33;;;;;;;3.67;1.10;;;;;;;20.86;45.61;99331.41;4960275;28;20215;-50
2022/05/21 11:16:05;;;;;;;2.73;1.00;;;;;;;20.84;45.09;99320.97;4963491;28;20199;-50
2022/05/21 11:18:37;;;;;;;3.67;1.20;;;;;;;21.08;43.00;99330.22;4973409;28;20196;-50
2022/05/21 11:21:12;;;;;;;2.40;0.87;;;;;;;20.67;44.70;99323.16;4971080;28;20197;-52
2022/05/21 11:23:52;;;;;;;2.40;0.90;;;;;;;20.70;44.17;99327.22;4968650;28;20274;-51
2022/05/21 11:26:29;;;;;;;4.50;1.13;;;;;;;20.60;43.80;99322.31;4966064;28;20190;-49
2022/05/21 11:29:02;;;;;;;3.10;0.73;;;;;;;20.68;45.50;99310.69;4965569;28;20221;-51
2022/05/21 11:39:59;;;;;;;4.63;0.80;;;;;;;21.15;41.05;99316.13;4959587;28;20209;-50
2022/05/21 11:42:31;;;;;;;1.37;0.70;;;;;;;21.33;42.58;99312.88;4972891;28;20743;-51
2022/05/21 11:45:22;;;;;;;4.10;0.70;;;;;;;20.92;39.92;99307.50;4972094;28;20212;-50
2022/05/21 11:47:56;;;;;;;7.63;0.97;;;;;;;21.31;40.03;99309.59;4961931;28;20597;-52
2022/05/21 11:50:31;;;;;;;2.13;0.60;;;;;;;21.51;40.53;99317.53;4971662;28;20682;-52
2022/05/21 11:53:24;;;;;;;2.17;0.60;;;;;;;21.21;38.44;99312.63;4971259;28;20240;-51
2022/05/21 11:56:03;;;;;;;4.60;0.90;;;;;;;21.06;39.35;99324.28;4952601;28;20298;-51
2022/05/21 11:59:24;;;;;;;3.20;0.80;;;;;;;21.43;38.74;99315.09;4973151;28;20259;-50
2022/05/21 12:02:12;;;;;;;1.87;0.50;;;;;;;21.55;39.61;99316.13;4976330;28;20232;-50
2022/05/21 12:04:52;;;;;;;1.20;0.70;;;;;;;21.41;38.89;99303.84;4975477;28;20249;-50
2022/05/21 12:07:53;;;;;;;3.17;0.60;;;;;;;21.63;39.85;99307.97;4968940;28;20644;-50
2022/05/21 12:10:31;;;;;;;4.00;0.80;;;;;;;21.22;38.05;99301.84;4969647;28;20190;-51
2022/05/21 12:13:11;;;;;;;5.03;1.00;;;;;;;21.62;40.59;99289.56;4976242;28;20225;-53
2022/05/21 12:15:41;;;;;;;3.17;0.70;;;;;;;22.03;40.40;99293.75;4972114;28;20307;-54
2022/05/21 12:18:37;;;;;;;2.67;0.60;;;;;;;22.26;38.31;99289.81;4973938;28;20271;-52
2022/05/21 12:21:06;;;;;;;1.90;0.63;;;;;;;22.19;38.70;99287.19;4973135;28;20209;-50
2022/05/21 12:24:05;;;;;;;2.17;0.77;;;;;;;21.81;36.82;99285.25;4963419;28;20656;-50
2022/05/21 12:26:34;;;;;;;8.30;0.60;;;;;;;22.05;36.38;99285.59;4972799;28;20219;-52
2022/05/21 12:29:13;;;;;;;2.43;0.60;;;;;;;21.80;37.87;99273.78;4967506;28;20288;-49